Tonganoxie, KS

4:24 AM CDT on April 18, 2015 (GMT -0500)
KTGX | | Change Station
CLOSE
Current Station
Personal Weather Station
Location: Tonganoxie, KS
Elevation: 861 ft
Nearby Weather Stations

Elev 861 ft 39.12 °N, 95.06 °W | Updated 15 seconds ago

Mostly Cloudy
Mostly Cloudy
56.2 °F
Feels Like 56.2 °F
N
0.0
Wind Variable Wind from WSW
Gusts 0.0 mph

Today
High -- | Low -- °F
--% Chance of Precip.
Yesterday
High -- | Low -- °F
Precip. -- in
6:39 AM 8:00 PM
Waning Crescent, 0% visible
Pressure 29.93 in
Visibility 1.8 miles
Clouds Clear
Dew Point 56 °F
Humidity 100%
Rainfall 0.00 in
Snow Depth Not available.
UV 0 out of 12
Pollen 9.90 out of 12
Air Quality Not available.
Flu Activity Sporadic
SPECI KLWC 180907Z AUTO 00000KT 1 3/4SM BR CLR 14/13 A2993 RMK AO2 T01390128

More Conditions Fewer Conditions

Pressure 29.93 in
Visibility 1.8 miles
Clouds Clear
Dew Point 56 °F
Humidity 100%
Rainfall 0.00 in
Snow Depth Not available.
UV 0 out of 12
Pollen 9.90 out of 12
Air Quality Not available.
Flu Activity Sporadic
SPECI KLWC 180907Z AUTO 00000KT 1 3/4SM BR CLR 14/13 A2993 RMK AO2 T01390128

More Conditions Fewer Conditions

10-Day Weather Forecast

Almanac

Astronomy

Apr. 18, 2015 Rise Set
Actual Time
Civil Twilight
Nautical Twilight
Astronomical Twilight
Moon
Length of Visible Light
Length of Day
Tomorrow will be .
, % of the Moon is Illuminated

Today's Extremes

State Highs State Lows

Community

WunderPhotos

Upload Photos

1,814,350 photos uploaded!

WunderBlogs® & News

Nearby

Air Quality

  Air Quality AQ Index Pollutant
Not available.

Snow Depth

Station Depth Elevation

Earthquake Activity

City Distance Mag. Time & Date
Minimum magnitude displayed is 2.5.

Coastal Water Temperatures

Place Temperature

Stations

Nearby Weather Stations

Station Location Temp. Windchill Dew Point Humidity Wind Precip. Elev Updated Type